sensor_id;sensor_type;location;lat;lon;timestamp;P1;durP1;ratioP1;P2;durP2;ratioP2
68449;SDS011;67758;39.572;2.652;2024-01-06T00:00:16;2.07;;;0.10;;
68449;SDS011;67758;39.572;2.652;2024-01-06T00:02:41;2.97;;;0.20;;
68449;SDS011;67758;39.572;2.652;2024-01-06T00:05:07;0.87;;;0.10;;
68449;SDS011;67758;39.572;2.652;2024-01-06T00:07:33;3.10;;;0.40;;
68449;SDS011;67758;39.572;2.652;2024-01-06T00:09:58;1.70;;;0.10;;
68449;SDS011;67758;39.572;2.652;2024-01-06T00:12:24;1.77;;;0.10;;
68449;SDS011;67758;39.572;2.652;2024-01-06T00:14:49;2.97;;;0.10;;
68449;SDS011;67758;39.572;2.652;2024-01-06T00:17:15;4.90;;;0.10;;
68449;SDS011;67758;39.572;2.652;2024-01-06T00:19:41;1.80;;;0.10;;
68449;SDS011;67758;39.572;2.652;2024-01-06T00:22:07;1.33;;;0.15;;
68449;SDS011;67758;39.572;2.652;2024-01-06T00:24:33;2.28;;;0.40;;
68449;SDS011;67758;39.572;2.652;2024-01-06T00:26:58;1.92;;;0.15;;
68449;SDS011;67758;39.572;2.652;2024-01-06T00:29:24;6.50;;;0.30;;
68449;SDS011;67758;39.572;2.652;2024-01-06T00:31:50;2.73;;;0.20;;
68449;SDS011;67758;39.572;2.652;2024-01-06T00:34:15;3.05;;;0.13;;
68449;SDS011;67758;39.572;2.652;2024-01-06T00:36:41;2.63;;;0.10;;
68449;SDS011;67758;39.572;2.652;2024-01-06T00:39:06;3.87;;;0.30;;
68449;SDS011;67758;39.572;2.652;2024-01-06T00:41:33;3.90;;;0.45;;
68449;SDS011;67758;39.572;2.652;2024-01-06T00:43:58;1.67;;;0.10;;
68449;SDS011;67758;39.572;2.652;2024-01-06T00:46:24;3.70;;;0.23;;
68449;SDS011;67758;39.572;2.652;2024-01-06T00:48:50;3.53;;;0.20;;
68449;SDS011;67758;39.572;2.652;2024-01-06T00:51:15;4.57;;;0.30;;
68449;SDS011;67758;39.572;2.652;2024-01-06T00:53:41;1.73;;;0.10;;
68449;SDS011;67758;39.572;2.652;2024-01-06T00:56:06;2.63;;;0.20;;
68449;SDS011;67758;39.572;2.652;2024-01-06T00:58:32;3.25;;;0.20;;
68449;SDS011;67758;39.572;2.652;2024-01-06T01:00:57;1.47;;;0.10;;
68449;SDS011;67758;39.572;2.652;2024-01-06T01:03:23;2.23;;;0.20;;
68449;SDS011;67758;39.572;2.652;2024-01-06T01:05:49;3.38;;;0.10;;
68449;SDS011;67758;39.572;2.652;2024-01-06T01:08:14;2.33;;;0.10;;
68449;SDS011;67758;39.572;2.652;2024-01-06T01:10:40;3.00;;;0.10;;
68449;SDS011;67758;39.572;2.652;2024-01-06T01:13:05;1.73;;;0.20;;
68449;SDS011;67758;39.572;2.652;2024-01-06T01:15:31;2.17;;;0.20;;
68449;SDS011;67758;39.572;2.652;2024-01-06T01:17:56;1.55;;;0.10;;
68449;SDS011;67758;39.572;2.652;2024-01-06T01:20:22;0.73;;;0.10;;
68449;SDS011;67758;39.572;2.652;2024-01-06T01:22:48;2.37;;;0.43;;
68449;SDS011;67758;39.572;2.652;2024-01-06T01:25:13;2.65;;;0.10;;
68449;SDS011;67758;39.572;2.652;2024-01-06T01:27:39;1.83;;;0.00;;
68449;SDS011;67758;39.572;2.652;2024-01-06T01:30:05;1.55;;;0.10;;
68449;SDS011;67758;39.572;2.652;2024-01-06T01:32:32;1.77;;;0.10;;
68449;SDS011;67758;39.572;2.652;2024-01-06T01:34:57;0.85;;;0.10;;
68449;SDS011;67758;39.572;2.652;2024-01-06T01:37:23;1.13;;;0.00;;
68449;SDS011;67758;39.572;2.652;2024-01-06T01:39:48;3.40;;;0.10;;
68449;SDS011;67758;39.572;2.652;2024-01-06T01:42:14;1.70;;;0.10;;
68449;SDS011;67758;39.572;2.652;2024-01-06T01:44:39;1.30;;;0.10;;
68449;SDS011;67758;39.572;2.652;2024-01-06T01:47:05;0.90;;;0.10;;
68449;SDS011;67758;39.572;2.652;2024-01-06T01:49:31;1.92;;;0.10;;
68449;SDS011;67758;39.572;2.652;2024-01-06T01:51:57;3.00;;;0.10;;
68449;SDS011;67758;39.572;2.652;2024-01-06T01:54:23;1.60;;;0.10;;
68449;SDS011;67758;39.572;2.652;2024-01-06T01:56:49;0.83;;;0.10;;
68449;SDS011;67758;39.572;2.652;2024-01-06T01:59:16;1.40;;;0.10;;
68449;SDS011;67758;39.572;2.652;2024-01-06T02:01:44;1.48;;;0.10;;
68449;SDS011;67758;39.572;2.652;2024-01-06T02:04:09;1.97;;;0.10;;
68449;SDS011;67758;39.572;2.652;2024-01-06T02:06:35;1.08;;;0.10;;
68449;SDS011;67758;39.572;2.652;2024-01-06T02:09:01;0.80;;;0.10;;
68449;SDS011;67758;39.572;2.652;2024-01-06T02:11:27;2.35;;;0.10;;
68449;SDS011;67758;39.572;2.652;2024-01-06T02:13:52;0.80;;;0.00;;
68449;SDS011;67758;39.572;2.652;2024-01-06T02:16:18;1.70;;;0.10;;
68449;SDS011;67758;39.572;2.652;2024-01-06T02:18:43;2.17;;;0.20;;
68449;SDS011;67758;39.572;2.652;2024-01-06T02:21:09;1.50;;;0.10;;
68449;SDS011;67758;39.572;2.652;2024-01-06T02:23:36;1.83;;;0.10;;
68449;SDS011;67758;39.572;2.652;2024-01-06T02:26:02;2.25;;;0.10;;
68449;SDS011;67758;39.572;2.652;2024-01-06T02:28:28;2.47;;;0.20;;
68449;SDS011;67758;39.572;2.652;2024-01-06T02:30:53;2.03;;;0.10;;
68449;SDS011;67758;39.572;2.652;2024-01-06T02:33:19;1.65;;;0.10;;
68449;SDS011;67758;39.572;2.652;2024-01-06T02:35:45;1.60;;;0.20;;
68449;SDS011;67758;39.572;2.652;2024-01-06T02:38:11;2.30;;;0.20;;
68449;SDS011;67758;39.572;2.652;2024-01-06T02:40:37;2.35;;;0.28;;
68449;SDS011;67758;39.572;2.652;2024-01-06T02:43:03;1.93;;;0.27;;
68449;SDS011;67758;39.572;2.652;2024-01-06T02:45:29;1.75;;;0.10;;
68449;SDS011;67758;39.572;2.652;2024-01-06T02:47:54;3.30;;;0.20;;
68449;SDS011;67758;39.572;2.652;2024-01-06T02:50:20;2.00;;;0.10;;
68449;SDS011;67758;39.572;2.652;2024-01-06T02:52:46;1.40;;;0.10;;
68449;SDS011;67758;39.572;2.652;2024-01-06T02:55:12;2.20;;;0.10;;
68449;SDS011;67758;39.572;2.652;2024-01-06T02:57:38;2.70;;;0.17;;
68449;SDS011;67758;39.572;2.652;2024-01-06T03:00:04;1.85;;;0.10;;
68449;SDS011;67758;39.572;2.652;2024-01-06T03:02:30;1.20;;;0.10;;
68449;SDS011;67758;39.572;2.652;2024-01-06T03:04:56;1.13;;;0.23;;
68449;SDS011;67758;39.572;2.652;2024-01-06T03:07:21;4.15;;;0.30;;
68449;SDS011;67758;39.572;2.652;2024-01-06T03:09:47;1.27;;;0.10;;
68449;SDS011;67758;39.572;2.652;2024-01-06T03:12:13;2.33;;;0.30;;
68449;SDS011;67758;39.572;2.652;2024-01-06T03:14:38;2.43;;;0.10;;
68449;SDS011;67758;39.572;2.652;2024-01-06T03:17:04;1.88;;;0.10;;
68449;SDS011;67758;39.572;2.652;2024-01-06T03:19:33;2.53;;;0.10;;
68449;SDS011;67758;39.572;2.652;2024-01-06T03:21:58;2.90;;;0.30;;
68449;SDS011;67758;39.572;2.652;2024-01-06T03:24:24;2.50;;;0.10;;
68449;SDS011;67758;39.572;2.652;2024-01-06T03:26:51;1.02;;;0.00;;
68449;SDS011;67758;39.572;2.652;2024-01-06T03:29:16;0.73;;;0.10;;
68449;SDS011;67758;39.572;2.652;2024-01-06T03:31:42;3.22;;;0.40;;
68449;SDS011;67758;39.572;2.652;2024-01-06T03:34:11;4.63;;;0.25;;
68449;SDS011;67758;39.572;2.652;2024-01-06T03:36:40;0.83;;;0.10;;
68449;SDS011;67758;39.572;2.652;2024-01-06T03:39:06;2.47;;;0.10;;
68449;SDS011;67758;39.572;2.652;2024-01-06T03:41:32;2.65;;;0.20;;
68449;SDS011;67758;39.572;2.652;2024-01-06T03:43:58;3.03;;;0.20;;
68449;SDS011;67758;39.572;2.652;2024-01-06T03:46:24;3.65;;;0.20;;
68449;SDS011;67758;39.572;2.652;2024-01-06T03:48:50;3.08;;;0.10;;
68449;SDS011;67758;39.572;2.652;2024-01-06T03:51:16;1.67;;;0.10;;
68449;SDS011;67758;39.572;2.652;2024-01-06T03:53:41;2.20;;;0.10;;
68449;SDS011;67758;39.572;2.652;2024-01-06T03:56:07;3.57;;;0.30;;
68449;SDS011;67758;39.572;2.652;2024-01-06T03:58:33;1.55;;;0.10;;
68449;SDS011;67758;39.572;2.652;2024-01-06T04:00:59;1.58;;;0.15;;
68449;SDS011;67758;39.572;2.652;2024-01-06T04:03:24;3.37;;;0.20;;
68449;SDS011;67758;39.572;2.652;2024-01-06T04:05:50;1.85;;;0.30;;
68449;SDS011;67758;39.572;2.652;2024-01-06T04:08:15;2.93;;;0.13;;
68449;SDS011;67758;39.572;2.652;2024-01-06T04:10:42;2.83;;;0.20;;
68449;SDS011;67758;39.572;2.652;2024-01-06T04:13:08;4.00;;;0.10;;
68449;SDS011;67758;39.572;2.652;2024-01-06T04:15:34;1.53;;;0.13;;
68449;SDS011;67758;39.572;2.652;2024-01-06T04:18:03;1.70;;;0.10;;
68449;SDS011;67758;39.572;2.652;2024-01-06T04:20:30;1.60;;;0.10;;
68449;SDS011;67758;39.572;2.652;2024-01-06T04:22:56;2.42;;;0.10;;
68449;SDS011;67758;39.572;2.652;2024-01-06T04:25:21;1.37;;;0.10;;
68449;SDS011;67758;39.572;2.652;2024-01-06T04:27:47;1.20;;;0.17;;
68449;SDS011;67758;39.572;2.652;2024-01-06T04:30:14;3.20;;;0.10;;
68449;SDS011;67758;39.572;2.652;2024-01-06T04:32:40;7.70;;;0.30;;
68449;SDS011;67758;39.572;2.652;2024-01-06T04:35:06;2.90;;;0.10;;
68449;SDS011;67758;39.572;2.652;2024-01-06T04:37:32;2.40;;;0.10;;
68449;SDS011;67758;39.572;2.652;2024-01-06T04:39:58;3.53;;;0.20;;
68449;SDS011;67758;39.572;2.652;2024-01-06T04:42:24;2.28;;;0.10;;
68449;SDS011;67758;39.572;2.652;2024-01-06T04:44:50;2.00;;;0.10;;
68449;SDS011;67758;39.572;2.652;2024-01-06T04:47:16;3.63;;;0.17;;
68449;SDS011;67758;39.572;2.652;2024-01-06T04:49:42;3.15;;;0.15;;
68449;SDS011;67758;39.572;2.652;2024-01-06T04:52:07;4.45;;;0.25;;
68449;SDS011;67758;39.572;2.652;2024-01-06T04:54:33;8.17;;;0.40;;
68449;SDS011;67758;39.572;2.652;2024-01-06T04:56:58;3.83;;;0.43;;
68449;SDS011;67758;39.572;2.652;2024-01-06T04:59:24;4.68;;;0.22;;
68449;SDS011;67758;39.572;2.652;2024-01-06T05:01:50;6.38;;;0.30;;
68449;SDS011;67758;39.572;2.652;2024-01-06T05:04:17;7.28;;;0.50;;
68449;SDS011;67758;39.572;2.652;2024-01-06T05:06:43;6.18;;;0.30;;
68449;SDS011;67758;39.572;2.652;2024-01-06T05:09:08;4.00;;;0.30;;
68449;SDS011;67758;39.572;2.652;2024-01-06T05:11:34;4.60;;;0.30;;
68449;SDS011;67758;39.572;2.652;2024-01-06T05:14:00;5.40;;;0.30;;
68449;SDS011;67758;39.572;2.652;2024-01-06T05:16:25;8.30;;;0.60;;
68449;SDS011;67758;39.572;2.652;2024-01-06T05:18:52;7.07;;;0.32;;
68449;SDS011;67758;39.572;2.652;2024-01-06T05:21:18;10.55;;;0.73;;
68449;SDS011;67758;39.572;2.652;2024-01-06T05:23:44;7.05;;;0.40;;
68449;SDS011;67758;39.572;2.652;2024-01-06T05:26:10;4.97;;;0.60;;
68449;SDS011;67758;39.572;2.652;2024-01-06T05:28:36;13.35;;;0.77;;
68449;SDS011;67758;39.572;2.652;2024-01-06T05:31:02;9.07;;;0.60;;
68449;SDS011;67758;39.572;2.652;2024-01-06T05:33:28;8.35;;;0.35;;
68449;SDS011;67758;39.572;2.652;2024-01-06T05:35:53;8.90;;;0.57;;
68449;SDS011;67758;39.572;2.652;2024-01-06T05:38:19;8.40;;;0.50;;
68449;SDS011;67758;39.572;2.652;2024-01-06T05:40:45;5.47;;;0.50;;
68449;SDS011;67758;39.572;2.652;2024-01-06T05:43:10;4.70;;;0.37;;
68449;SDS011;67758;39.572;2.652;2024-01-06T05:45:36;8.80;;;0.50;;
68449;SDS011;67758;39.572;2.652;2024-01-06T05:48:03;7.18;;;0.90;;
68449;SDS011;67758;39.572;2.652;2024-01-06T05:50:33;7.83;;;0.50;;
68449;SDS011;67758;39.572;2.652;2024-01-06T05:52:58;9.15;;;0.50;;
68449;SDS011;67758;39.572;2.652;2024-01-06T05:55:24;12.70;;;0.70;;
68449;SDS011;67758;39.572;2.652;2024-01-06T05:57:50;5.32;;;0.35;;
68449;SDS011;67758;39.572;2.652;2024-01-06T06:00:16;11.30;;;0.60;;
68449;SDS011;67758;39.572;2.652;2024-01-06T06:02:42;13.53;;;0.60;;
68449;SDS011;67758;39.572;2.652;2024-01-06T06:05:07;8.93;;;0.60;;
68449;SDS011;67758;39.572;2.652;2024-01-06T06:07:33;8.47;;;0.60;;
68449;SDS011;67758;39.572;2.652;2024-01-06T06:10:04;6.72;;;0.55;;
68449;SDS011;67758;39.572;2.652;2024-01-06T06:12:31;9.52;;;0.70;;
68449;SDS011;67758;39.572;2.652;2024-01-06T06:14:57;9.27;;;0.93;;
68449;SDS011;67758;39.572;2.652;2024-01-06T06:17:23;6.40;;;0.40;;
68449;SDS011;67758;39.572;2.652;2024-01-06T06:19:48;9.33;;;0.47;;
68449;SDS011;67758;39.572;2.652;2024-01-06T06:22:14;8.47;;;0.40;;
68449;SDS011;67758;39.572;2.652;2024-01-06T06:24:39;8.43;;;0.50;;
68449;SDS011;67758;39.572;2.652;2024-01-06T06:27:05;8.47;;;0.77;;
68449;SDS011;67758;39.572;2.652;2024-01-06T06:29:30;7.05;;;0.60;;
68449;SDS011;67758;39.572;2.652;2024-01-06T06:31:56;5.20;;;0.53;;
68449;SDS011;67758;39.572;2.652;2024-01-06T06:34:22;5.60;;;0.50;;
68449;SDS011;67758;39.572;2.652;2024-01-06T06:36:48;6.32;;;0.50;;
68449;SDS011;67758;39.572;2.652;2024-01-06T06:39:13;8.27;;;0.50;;
68449;SDS011;67758;39.572;2.652;2024-01-06T06:41:39;8.30;;;0.98;;
68449;SDS011;67758;39.572;2.652;2024-01-06T06:44:04;5.57;;;0.43;;
68449;SDS011;67758;39.572;2.652;2024-01-06T06:46:30;9.90;;;1.13;;
68449;SDS011;67758;39.572;2.652;2024-01-06T06:48:56;10.13;;;0.40;;
68449;SDS011;67758;39.572;2.652;2024-01-06T06:51:22;6.50;;;0.43;;
68449;SDS011;67758;39.572;2.652;2024-01-06T06:53:50;8.18;;;0.40;;
68449;SDS011;67758;39.572;2.652;2024-01-06T06:56:15;10.37;;;0.80;;
68449;SDS011;67758;39.572;2.652;2024-01-06T06:58:42;8.68;;;0.82;;
68449;SDS011;67758;39.572;2.652;2024-01-06T07:01:08;7.53;;;0.90;;
68449;SDS011;67758;39.572;2.652;2024-01-06T07:03:34;6.32;;;0.80;;
68449;SDS011;67758;39.572;2.652;2024-01-06T07:05:59;4.00;;;0.73;;
68449;SDS011;67758;39.572;2.652;2024-01-06T07:08:25;4.05;;;0.40;;
68449;SDS011;67758;39.572;2.652;2024-01-06T07:10:50;9.87;;;0.67;;
68449;SDS011;67758;39.572;2.652;2024-01-06T07:13:16;8.83;;;0.60;;
68449;SDS011;67758;39.572;2.652;2024-01-06T07:15:41;11.00;;;0.63;;
68449;SDS011;67758;39.572;2.652;2024-01-06T07:18:07;9.83;;;1.13;;
68449;SDS011;67758;39.572;2.652;2024-01-06T07:20:33;9.75;;;1.58;;
68449;SDS011;67758;39.572;2.652;2024-01-06T07:22:58;4.07;;;0.40;;
68449;SDS011;67758;39.572;2.652;2024-01-06T07:25:24;5.03;;;0.50;;
68449;SDS011;67758;39.572;2.652;2024-01-06T07:27:49;6.00;;;0.47;;
68449;SDS011;67758;39.572;2.652;2024-01-06T07:30:15;13.33;;;1.27;;
68449;SDS011;67758;39.572;2.652;2024-01-06T07:32:41;12.98;;;0.68;;
68449;SDS011;67758;39.572;2.652;2024-01-06T07:35:07;14.82;;;1.05;;
68449;SDS011;67758;39.572;2.652;2024-01-06T07:37:33;7.30;;;0.60;;
68449;SDS011;67758;39.572;2.652;2024-01-06T07:40:02;6.65;;;0.57;;
68449;SDS011;67758;39.572;2.652;2024-01-06T07:42:27;5.78;;;0.50;;
68449;SDS011;67758;39.572;2.652;2024-01-06T07:44:53;5.93;;;0.30;;
68449;SDS011;67758;39.572;2.652;2024-01-06T07:47:18;10.30;;;0.40;;
68449;SDS011;67758;39.572;2.652;2024-01-06T07:49:44;10.13;;;0.85;;
68449;SDS011;67758;39.572;2.652;2024-01-06T07:52:11;5.90;;;0.73;;
68449;SDS011;67758;39.572;2.652;2024-01-06T07:54:38;6.00;;;0.65;;
68449;SDS011;67758;39.572;2.652;2024-01-06T07:57:04;5.72;;;0.40;;
68449;SDS011;67758;39.572;2.652;2024-01-06T07:59:30;7.60;;;0.60;;
68449;SDS011;67758;39.572;2.652;2024-01-06T08:01:55;11.13;;;0.65;;
68449;SDS011;67758;39.572;2.652;2024-01-06T08:04:21;6.30;;;0.50;;
68449;SDS011;67758;39.572;2.652;2024-01-06T08:06:46;10.10;;;0.80;;
68449;SDS011;67758;39.572;2.652;2024-01-06T08:09:12;10.27;;;1.35;;
68449;SDS011;67758;39.572;2.652;2024-01-06T08:11:38;3.43;;;0.40;;
68449;SDS011;67758;39.572;2.652;2024-01-06T08:14:04;2.40;;;0.30;;
68449;SDS011;67758;39.572;2.652;2024-01-06T08:16:29;10.57;;;0.53;;
68449;SDS011;67758;39.572;2.652;2024-01-06T08:18:55;11.45;;;1.05;;
68449;SDS011;67758;39.572;2.652;2024-01-06T08:21:20;12.43;;;0.90;;
68449;SDS011;67758;39.572;2.652;2024-01-06T08:23:46;10.43;;;0.90;;
68449;SDS011;67758;39.572;2.652;2024-01-06T08:26:12;6.90;;;0.70;;
68449;SDS011;67758;39.572;2.652;2024-01-06T08:28:38;4.43;;;0.30;;
68449;SDS011;67758;39.572;2.652;2024-01-06T08:31:03;3.03;;;0.30;;
68449;SDS011;67758;39.572;2.652;2024-01-06T08:33:29;5.73;;;0.50;;
68449;SDS011;67758;39.572;2.652;2024-01-06T08:35:54;7.05;;;0.50;;
68449;SDS011;67758;39.572;2.652;2024-01-06T08:38:20;5.57;;;0.70;;
68449;SDS011;67758;39.572;2.652;2024-01-06T08:40:47;4.72;;;0.50;;
68449;SDS011;67758;39.572;2.652;2024-01-06T08:43:15;3.33;;;0.32;;
68449;SDS011;67758;39.572;2.652;2024-01-06T08:45:41;5.43;;;0.77;;
68449;SDS011;67758;39.572;2.652;2024-01-06T08:48:07;7.53;;;0.70;;
68449;SDS011;67758;39.572;2.652;2024-01-06T08:50:32;4.18;;;0.50;;
68449;SDS011;67758;39.572;2.652;2024-01-06T08:52:58;7.80;;;0.57;;
68449;SDS011;67758;39.572;2.652;2024-01-06T08:55:23;5.60;;;0.47;;
68449;SDS011;67758;39.572;2.652;2024-01-06T08:57:50;12.40;;;0.93;;
68449;SDS011;67758;39.572;2.652;2024-01-06T09:00:23;10.93;;;0.80;;
68449;SDS011;67758;39.572;2.652;2024-01-06T09:02:49;4.97;;;0.70;;
68449;SDS011;67758;39.572;2.652;2024-01-06T09:05:15;3.28;;;0.40;;
68449;SDS011;67758;39.572;2.652;2024-01-06T09:07:40;13.73;;;0.47;;
68449;SDS011;67758;39.572;2.652;2024-01-06T09:10:06;9.55;;;0.70;;
68449;SDS011;67758;39.572;2.652;2024-01-06T09:12:32;10.93;;;0.93;;
68449;SDS011;67758;39.572;2.652;2024-01-06T09:14:58;5.93;;;0.40;;
68449;SDS011;67758;39.572;2.652;2024-01-06T09:17:23;9.37;;;0.53;;
68449;SDS011;67758;39.572;2.652;2024-01-06T09:19:49;12.32;;;0.73;;
68449;SDS011;67758;39.572;2.652;2024-01-06T09:22:14;4.40;;;0.40;;
68449;SDS011;67758;39.572;2.652;2024-01-06T09:24:40;5.93;;;0.80;;
68449;SDS011;67758;39.572;2.652;2024-01-06T09:27:05;8.65;;;0.70;;
68449;SDS011;67758;39.572;2.652;2024-01-06T09:29:31;8.53;;;0.80;;
68449;SDS011;67758;39.572;2.652;2024-01-06T09:31:57;9.70;;;0.60;;
68449;SDS011;67758;39.572;2.652;2024-01-06T09:34:22;5.38;;;0.50;;
68449;SDS011;67758;39.572;2.652;2024-01-06T09:36:48;9.73;;;0.60;;
68449;SDS011;67758;39.572;2.652;2024-01-06T09:39:13;4.77;;;0.50;;
68449;SDS011;67758;39.572;2.652;2024-01-06T09:41:39;4.75;;;0.60;;
68449;SDS011;67758;39.572;2.652;2024-01-06T09:44:04;8.65;;;0.60;;
68449;SDS011;67758;39.572;2.652;2024-01-06T09:46:30;3.70;;;0.70;;
68449;SDS011;67758;39.572;2.652;2024-01-06T09:48:57;2.92;;;0.40;;
68449;SDS011;67758;39.572;2.652;2024-01-06T09:51:23;10.65;;;0.93;;
68449;SDS011;67758;39.572;2.652;2024-01-06T09:54:01;6.78;;;0.82;;
68449;SDS011;67758;39.572;2.652;2024-01-06T09:56:32;7.47;;;0.68;;
68449;SDS011;67758;39.572;2.652;2024-01-06T09:58:57;10.83;;;0.70;;
68449;SDS011;67758;39.572;2.652;2024-01-06T10:01:23;5.10;;;0.57;;
68449;SDS011;67758;39.572;2.652;2024-01-06T10:03:49;9.80;;;0.83;;
68449;SDS011;67758;39.572;2.652;2024-01-06T10:06:14;5.88;;;0.57;;
68449;SDS011;67758;39.572;2.652;2024-01-06T10:08:44;4.67;;;0.43;;
68449;SDS011;67758;39.572;2.652;2024-01-06T10:11:13;4.28;;;0.50;;
68449;SDS011;67758;39.572;2.652;2024-01-06T10:13:39;6.55;;;0.68;;
68449;SDS011;67758;39.572;2.652;2024-01-06T10:16:05;6.43;;;0.37;;
68449;SDS011;67758;39.572;2.652;2024-01-06T10:18:32;6.13;;;0.50;;
68449;SDS011;67758;39.572;2.652;2024-01-06T10:20:58;5.38;;;0.43;;
68449;SDS011;67758;39.572;2.652;2024-01-06T10:23:24;3.88;;;0.30;;
68449;SDS011;67758;39.572;2.652;2024-01-06T10:25:55;7.50;;;0.73;;
68449;SDS011;67758;39.572;2.652;2024-01-06T10:28:24;5.18;;;0.80;;
68449;SDS011;67758;39.572;2.652;2024-01-06T10:30:53;9.05;;;0.50;;
68449;SDS011;67758;39.572;2.652;2024-01-06T10:33:20;14.43;;;0.75;;
68449;SDS011;67758;39.572;2.652;2024-01-06T10:35:48;8.05;;;0.50;;
68449;SDS011;67758;39.572;2.652;2024-01-06T10:38:14;4.25;;;0.47;;
68449;SDS011;67758;39.572;2.652;2024-01-06T10:41:02;5.32;;;0.55;;
68449;SDS011;67758;39.572;2.652;2024-01-06T10:43:32;8.98;;;0.85;;
68449;SDS011;67758;39.572;2.652;2024-01-06T10:46:04;7.95;;;0.98;;
68449;SDS011;67758;39.572;2.652;2024-01-06T10:48:31;5.00;;;0.70;;
68449;SDS011;67758;39.572;2.652;2024-01-06T10:50:58;6.35;;;1.15;;
68449;SDS011;67758;39.572;2.652;2024-01-06T10:53:25;5.50;;;1.00;;
68449;SDS011;67758;39.572;2.652;2024-01-06T10:55:52;6.85;;;0.77;;
68449;SDS011;67758;39.572;2.652;2024-01-06T10:58:18;9.40;;;1.13;;
68449;SDS011;67758;39.572;2.652;2024-01-06T11:00:44;7.78;;;0.90;;
68449;SDS011;67758;39.572;2.652;2024-01-06T11:03:11;6.57;;;0.60;;
68449;SDS011;67758;39.572;2.652;2024-01-06T11:05:38;6.90;;;1.00;;
68449;SDS011;67758;39.572;2.652;2024-01-06T11:08:06;4.53;;;0.70;;
68449;SDS011;67758;39.572;2.652;2024-01-06T11:10:32;8.18;;;1.23;;
68449;SDS011;67758;39.572;2.652;2024-01-06T11:13:21;5.97;;;0.60;;
68449;SDS011;67758;39.572;2.652;2024-01-06T11:15:48;4.85;;;0.57;;
68449;SDS011;67758;39.572;2.652;2024-01-06T11:18:36;6.75;;;0.90;;
68449;SDS011;67758;39.572;2.652;2024-01-06T11:21:36;4.88;;;0.75;;
68449;SDS011;67758;39.572;2.652;2024-01-06T11:26:44;14.73;;;4.85;;
68449;SDS011;67758;39.572;2.652;2024-01-06T11:29:10;11.50;;;1.23;;
68449;SDS011;67758;39.572;2.652;2024-01-06T11:31:37;6.37;;;1.30;;
68449;SDS011;67758;39.572;2.652;2024-01-06T11:34:18;6.63;;;1.08;;
68449;SDS011;67758;39.572;2.652;2024-01-06T11:36:49;5.28;;;0.90;;
68449;SDS011;67758;39.572;2.652;2024-01-06T11:39:37;7.88;;;0.90;;
68449;SDS011;67758;39.572;2.652;2024-01-06T11:42:07;3.55;;;0.50;;
68449;SDS011;67758;39.572;2.652;2024-01-06T11:44:39;4.50;;;0.90;;
68449;SDS011;67758;39.572;2.652;2024-01-06T11:47:10;4.78;;;0.80;;
68449;SDS011;67758;39.572;2.652;2024-01-06T11:49:37;7.63;;;0.80;;
68449;SDS011;67758;39.572;2.652;2024-01-06T11:52:03;7.45;;;1.40;;
68449;SDS011;67758;39.572;2.652;2024-01-06T11:54:29;9.10;;;1.15;;
68449;SDS011;67758;39.572;2.652;2024-01-06T11:56:58;8.80;;;1.33;;
68449;SDS011;67758;39.572;2.652;2024-01-06T11:59:24;9.77;;;1.17;;
68449;SDS011;67758;39.572;2.652;2024-01-06T12:01:50;6.07;;;1.20;;
68449;SDS011;67758;39.572;2.652;2024-01-06T12:04:17;5.43;;;0.90;;
68449;SDS011;67758;39.572;2.652;2024-01-06T12:06:42;4.90;;;0.93;;
68449;SDS011;67758;39.572;2.652;2024-01-06T12:09:12;6.40;;;1.08;;
68449;SDS011;67758;39.572;2.652;2024-01-06T12:11:41;8.77;;;1.00;;
68449;SDS011;67758;39.572;2.652;2024-01-06T12:14:10;9.48;;;1.52;;
68449;SDS011;67758;39.572;2.652;2024-01-06T12:16:36;4.72;;;1.20;;
68449;SDS011;67758;39.572;2.652;2024-01-06T12:19:02;7.68;;;1.20;;
68449;SDS011;67758;39.572;2.652;2024-01-06T12:21:28;6.55;;;1.08;;
68449;SDS011;67758;39.572;2.652;2024-01-06T12:24:15;6.25;;;0.90;;
68449;SDS011;67758;39.572;2.652;2024-01-06T12:26:44;5.22;;;0.77;;
68449;SDS011;67758;39.572;2.652;2024-01-06T12:29:09;8.80;;;1.10;;
68449;SDS011;67758;39.572;2.652;2024-01-06T12:31:37;6.28;;;0.80;;
68449;SDS011;67758;39.572;2.652;2024-01-06T12:34:04;5.68;;;1.00;;
68449;SDS011;67758;39.572;2.652;2024-01-06T12:36:30;9.10;;;1.73;;
68449;SDS011;67758;39.572;2.652;2024-01-06T12:38:58;5.90;;;1.15;;
68449;SDS011;67758;39.572;2.652;2024-01-06T12:41:25;5.50;;;0.88;;
68449;SDS011;67758;39.572;2.652;2024-01-06T12:43:52;4.85;;;0.80;;
68449;SDS011;67758;39.572;2.652;2024-01-06T12:46:18;6.63;;;0.87;;
68449;SDS011;67758;39.572;2.652;2024-01-06T12:48:44;5.65;;;1.25;;
68449;SDS011;67758;39.572;2.652;2024-01-06T12:51:09;6.40;;;0.80;;
68449;SDS011;67758;39.572;2.652;2024-01-06T12:53:35;8.75;;;1.00;;
68449;SDS011;67758;39.572;2.652;2024-01-06T12:56:01;7.43;;;1.00;;
68449;SDS011;67758;39.572;2.652;2024-01-06T12:58:26;4.13;;;0.60;;
68449;SDS011;67758;39.572;2.652;2024-01-06T13:00:52;3.57;;;0.40;;
68449;SDS011;67758;39.572;2.652;2024-01-06T13:03:18;4.85;;;0.52;;
68449;SDS011;67758;39.572;2.652;2024-01-06T13:05:51;7.22;;;0.75;;
68449;SDS011;67758;39.572;2.652;2024-01-06T13:08:22;5.32;;;0.50;;
68449;SDS011;67758;39.572;2.652;2024-01-06T13:11:07;6.18;;;0.57;;
68449;SDS011;67758;39.572;2.652;2024-01-06T13:13:56;6.00;;;0.60;;
68449;SDS011;67758;39.572;2.652;2024-01-06T13:16:29;6.05;;;0.55;;
68449;SDS011;67758;39.572;2.652;2024-01-06T13:18:54;9.07;;;0.80;;
68449;SDS011;67758;39.572;2.652;2024-01-06T13:21:20;7.63;;;1.00;;
68449;SDS011;67758;39.572;2.652;2024-01-06T13:23:49;6.03;;;0.70;;
68449;SDS011;67758;39.572;2.652;2024-01-06T13:26:15;4.35;;;0.50;;
68449;SDS011;67758;39.572;2.652;2024-01-06T13:28:40;7.60;;;1.00;;
68449;SDS011;67758;39.572;2.652;2024-01-06T13:31:06;6.90;;;0.60;;
68449;SDS011;67758;39.572;2.652;2024-01-06T13:33:32;12.25;;;0.80;;
68449;SDS011;67758;39.572;2.652;2024-01-06T13:35:58;6.97;;;0.80;;
68449;SDS011;67758;39.572;2.652;2024-01-06T13:38:23;3.35;;;0.40;;
68449;SDS011;67758;39.572;2.652;2024-01-06T13:40:51;4.00;;;0.60;;
68449;SDS011;67758;39.572;2.652;2024-01-06T13:43:17;7.05;;;0.70;;
68449;SDS011;67758;39.572;2.652;2024-01-06T13:45:43;7.30;;;0.70;;
68449;SDS011;67758;39.572;2.652;2024-01-06T13:48:12;5.95;;;0.57;;
68449;SDS011;67758;39.572;2.652;2024-01-06T13:50:38;4.88;;;0.55;;
68449;SDS011;67758;39.572;2.652;2024-01-06T13:53:06;8.23;;;0.70;;
68449;SDS011;67758;39.572;2.652;2024-01-06T13:55:32;7.38;;;0.80;;
68449;SDS011;67758;39.572;2.652;2024-01-06T13:57:59;3.88;;;0.68;;
68449;SDS011;67758;39.572;2.652;2024-01-06T14:00:24;3.90;;;0.40;;
68449;SDS011;67758;39.572;2.652;2024-01-06T14:02:51;4.45;;;0.70;;
68449;SDS011;67758;39.572;2.652;2024-01-06T14:05:20;4.82;;;0.60;;
68449;SDS011;67758;39.572;2.652;2024-01-06T14:08:19;9.25;;;0.50;;
68449;SDS011;67758;39.572;2.652;2024-01-06T14:10:48;5.20;;;0.60;;
68449;SDS011;67758;39.572;2.652;2024-01-06T14:13:25;4.13;;;0.70;;
68449;SDS011;67758;39.572;2.652;2024-01-06T14:15:56;9.55;;;0.90;;
68449;SDS011;67758;39.572;2.652;2024-01-06T14:18:31;5.53;;;0.70;;
68449;SDS011;67758;39.572;2.652;2024-01-06T14:20:59;9.80;;;0.83;;
68449;SDS011;67758;39.572;2.652;2024-01-06T14:23:24;6.35;;;0.80;;
68449;SDS011;67758;39.572;2.652;2024-01-06T14:25:53;7.05;;;1.30;;
68449;SDS011;67758;39.572;2.652;2024-01-06T14:28:18;6.67;;;0.77;;
68449;SDS011;67758;39.572;2.652;2024-01-06T14:30:44;4.55;;;0.55;;
68449;SDS011;67758;39.572;2.652;2024-01-06T14:33:10;8.80;;;0.73;;
68449;SDS011;67758;39.572;2.652;2024-01-06T14:35:35;6.93;;;1.08;;
68449;SDS011;67758;39.572;2.652;2024-01-06T14:38:04;4.43;;;0.60;;
68449;SDS011;67758;39.572;2.652;2024-01-06T14:40:31;5.45;;;0.80;;
68449;SDS011;67758;39.572;2.652;2024-01-06T14:42:57;3.30;;;0.50;;
68449;SDS011;67758;39.572;2.652;2024-01-06T14:45:25;2.92;;;0.47;;